sensor_id;sensor_type;location;lat;lon;timestamp;temperature;humidity
8563;DHT22;16392;52.508;13.468;2022-08-18T00:02:13;24.30;76.60
8563;DHT22;16392;52.508;13.468;2022-08-18T00:04:41;24.30;82.00
8563;DHT22;16392;52.508;13.468;2022-08-18T00:07:10;24.20;85.90
8563;DHT22;16392;52.508;13.468;2022-08-18T00:09:38;24.20;92.40
8563;DHT22;16392;52.508;13.468;2022-08-18T00:12:08;24.20;94.00
8563;DHT22;16392;52.508;13.468;2022-08-18T00:14:39;24.20;91.50
8563;DHT22;16392;52.508;13.468;2022-08-18T00:17:06;24.20;93.40
8563;DHT22;16392;52.508;13.468;2022-08-18T00:19:32;24.20;91.20
8563;DHT22;16392;52.508;13.468;2022-08-18T00:21:59;24.20;89.80
8563;DHT22;16392;52.508;13.468;2022-08-18T00:24:25;24.20;91.20
8563;DHT22;16392;52.508;13.468;2022-08-18T00:26:52;24.20;83.00
8563;DHT22;16392;52.508;13.468;2022-08-18T00:29:19;24.20;79.80
8563;DHT22;16392;52.508;13.468;2022-08-18T00:31:47;24.20;64.20
8563;DHT22;16392;52.508;13.468;2022-08-18T00:34:13;24.30;64.50
8563;DHT22;16392;52.508;13.468;2022-08-18T00:36:40;24.40;48.70
8563;DHT22;16392;52.508;13.468;2022-08-18T00:39:07;24.50;45.40
8563;DHT22;16392;52.508;13.468;2022-08-18T00:41:34;24.50;28.60
8563;DHT22;16392;52.508;13.468;2022-08-18T00:44:01;24.50;35.50
8563;DHT22;16392;52.508;13.468;2022-08-18T00:46:36;24.50;30.20
8563;DHT22;16392;52.508;13.468;2022-08-18T00:49:04;24.40;30.30
8563;DHT22;16392;52.508;13.468;2022-08-18T00:51:36;24.50;37.50
8563;DHT22;16392;52.508;13.468;2022-08-18T00:54:08;24.40;37.60
8563;DHT22;16392;52.508;13.468;2022-08-18T00:56:38;24.30;33.30
8563;DHT22;16392;52.508;13.468;2022-08-18T00:59:13;24.30;35.20
8563;DHT22;16392;52.508;13.468;2022-08-18T01:01:42;24.30;42.20
8563;DHT22;16392;52.508;13.468;2022-08-18T01:04:16;24.30;39.60
8563;DHT22;16392;52.508;13.468;2022-08-18T01:06:47;24.20;52.50
8563;DHT22;16392;52.508;13.468;2022-08-18T01:09:17;24.20;52.90
8563;DHT22;16392;52.508;13.468;2022-08-18T01:11:44;24.20;57.70
8563;DHT22;16392;52.508;13.468;2022-08-18T01:14:12;24.10;53.50
8563;DHT22;16392;52.508;13.468;2022-08-18T01:16:41;24.10;55.50
8563;DHT22;16392;52.508;13.468;2022-08-18T01:19:28;24.10;57.90
8563;DHT22;16392;52.508;13.468;2022-08-18T01:22:19;24.00;69.60
8563;DHT22;16392;52.508;13.468;2022-08-18T01:24:50;24.00;63.70
8563;DHT22;16392;52.508;13.468;2022-08-18T01:27:35;24.00;68.30
8563;DHT22;16392;52.508;13.468;2022-08-18T01:30:05;23.90;82.10
8563;DHT22;16392;52.508;13.468;2022-08-18T01:32:35;23.90;90.50
8563;DHT22;16392;52.508;13.468;2022-08-18T01:35:03;23.80;91.00
8563;DHT22;16392;52.508;13.468;2022-08-18T01:37:30;23.80;92.70
8563;DHT22;16392;52.508;13.468;2022-08-18T01:39:58;23.80;95.70
8563;DHT22;16392;52.508;13.468;2022-08-18T01:42:25;23.70;94.40
8563;DHT22;16392;52.508;13.468;2022-08-18T01:44:51;23.70;97.30
8563;DHT22;16392;52.508;13.468;2022-08-18T01:47:18;23.70;91.80
8563;DHT22;16392;52.508;13.468;2022-08-18T01:49:45;23.70;92.00
8563;DHT22;16392;52.508;13.468;2022-08-18T01:52:15;23.70;92.90
8563;DHT22;16392;52.508;13.468;2022-08-18T01:54:43;23.70;91.80
8563;DHT22;16392;52.508;13.468;2022-08-18T01:57:12;23.70;91.20
8563;DHT22;16392;52.508;13.468;2022-08-18T01:59:39;23.60;96.70
8563;DHT22;16392;52.508;13.468;2022-08-18T02:02:06;23.60;93.10
8563;DHT22;16392;52.508;13.468;2022-08-18T02:04:34;23.50;97.10
8563;DHT22;16392;52.508;13.468;2022-08-18T02:07:04;23.50;99.90
8563;DHT22;16392;52.508;13.468;2022-08-18T02:09:31;23.50;99.20
8563;DHT22;16392;52.508;13.468;2022-08-18T02:11:57;23.40;99.90
8563;DHT22;16392;52.508;13.468;2022-08-18T02:14:25;23.40;99.90
8563;DHT22;16392;52.508;13.468;2022-08-18T02:16:52;23.30;99.90
8563;DHT22;16392;52.508;13.468;2022-08-18T02:19:20;23.30;99.90
8563;DHT22;16392;52.508;13.468;2022-08-18T02:21:47;23.30;99.90
8563;DHT22;16392;52.508;13.468;2022-08-18T02:24:14;23.20;99.90
8563;DHT22;16392;52.508;13.468;2022-08-18T02:26:40;23.20;99.90
8563;DHT22;16392;52.508;13.468;2022-08-18T02:29:07;23.10;99.90
8563;DHT22;16392;52.508;13.468;2022-08-18T02:31:35;23.10;99.90
8563;DHT22;16392;52.508;13.468;2022-08-18T02:34:02;23.10;99.90
8563;DHT22;16392;52.508;13.468;2022-08-18T02:36:28;23.10;99.90
8563;DHT22;16392;52.508;13.468;2022-08-18T02:38:55;23.10;99.90
8563;DHT22;16392;52.508;13.468;2022-08-18T02:41:22;23.00;99.90
8563;DHT22;16392;52.508;13.468;2022-08-18T02:43:50;23.00;99.90
8563;DHT22;16392;52.508;13.468;2022-08-18T02:46:17;22.90;99.90
8563;DHT22;16392;52.508;13.468;2022-08-18T02:48:45;22.90;99.90
8563;DHT22;16392;52.508;13.468;2022-08-18T02:51:14;22.80;99.90
8563;DHT22;16392;52.508;13.468;2022-08-18T02:53:43;22.70;99.90
8563;DHT22;16392;52.508;13.468;2022-08-18T02:56:11;22.70;99.90
8563;DHT22;16392;52.508;13.468;2022-08-18T02:58:45;22.60;99.90
8563;DHT22;16392;52.508;13.468;2022-08-18T03:01:11;22.60;99.90
8563;DHT22;16392;52.508;13.468;2022-08-18T03:03:38;22.60;99.90
8563;DHT22;16392;52.508;13.468;2022-08-18T03:06:06;22.50;99.90
8563;DHT22;16392;52.508;13.468;2022-08-18T03:08:33;22.50;99.90
8563;DHT22;16392;52.508;13.468;2022-08-18T03:10:59;22.50;99.90
8563;DHT22;16392;52.508;13.468;2022-08-18T03:13:26;22.50;99.90
8563;DHT22;16392;52.508;13.468;2022-08-18T03:15:54;22.40;99.90
8563;DHT22;16392;52.508;13.468;2022-08-18T03:18:21;22.40;99.90
8563;DHT22;16392;52.508;13.468;2022-08-18T03:20:48;22.40;99.90
8563;DHT22;16392;52.508;13.468;2022-08-18T03:23:16;22.30;99.90
8563;DHT22;16392;52.508;13.468;2022-08-18T03:25:44;22.30;99.90
8563;DHT22;16392;52.508;13.468;2022-08-18T03:28:12;22.30;99.90
8563;DHT22;16392;52.508;13.468;2022-08-18T03:30:38;22.30;99.90
8563;DHT22;16392;52.508;13.468;2022-08-18T03:33:05;22.20;99.90
8563;DHT22;16392;52.508;13.468;2022-08-18T03:35:34;22.10;99.90
8563;DHT22;16392;52.508;13.468;2022-08-18T03:38:02;22.00;99.90
8563;DHT22;16392;52.508;13.468;2022-08-18T03:40:30;22.00;99.90
8563;DHT22;16392;52.508;13.468;2022-08-18T03:42:57;21.90;99.90
8563;DHT22;16392;52.508;13.468;2022-08-18T03:45:23;21.90;99.90
8563;DHT22;16392;52.508;13.468;2022-08-18T03:47:53;21.90;99.90
8563;DHT22;16392;52.508;13.468;2022-08-18T03:50:19;21.90;99.90
8563;DHT22;16392;52.508;13.468;2022-08-18T03:52:50;21.90;99.90
8563;DHT22;16392;52.508;13.468;2022-08-18T03:55:17;21.90;99.90
8563;DHT22;16392;52.508;13.468;2022-08-18T03:57:45;21.90;99.90
8563;DHT22;16392;52.508;13.468;2022-08-18T04:00:12;21.90;99.90
8563;DHT22;16392;52.508;13.468;2022-08-18T04:02:39;21.90;99.90
8563;DHT22;16392;52.508;13.468;2022-08-18T04:05:06;21.80;99.90
8563;DHT22;16392;52.508;13.468;2022-08-18T04:07:34;21.80;99.90
8563;DHT22;16392;52.508;13.468;2022-08-18T04:10:01;21.70;99.90
8563;DHT22;16392;52.508;13.468;2022-08-18T04:12:28;21.70;99.90
8563;DHT22;16392;52.508;13.468;2022-08-18T04:14:57;21.70;99.90
8563;DHT22;16392;52.508;13.468;2022-08-18T04:17:23;21.80;99.90
8563;DHT22;16392;52.508;13.468;2022-08-18T04:19:50;21.90;99.90
8563;DHT22;16392;52.508;13.468;2022-08-18T04:22:18;21.90;99.90
8563;DHT22;16392;52.508;13.468;2022-08-18T04:24:45;21.90;99.90
8563;DHT22;16392;52.508;13.468;2022-08-18T04:27:12;22.00;99.90
8563;DHT22;16392;52.508;13.468;2022-08-18T04:29:38;22.10;99.90
8563;DHT22;16392;52.508;13.468;2022-08-18T04:32:06;22.20;99.90
8563;DHT22;16392;52.508;13.468;2022-08-18T04:34:33;22.30;99.90
8563;DHT22;16392;52.508;13.468;2022-08-18T04:37:00;22.40;99.90
8563;DHT22;16392;52.508;13.468;2022-08-18T04:39:27;22.40;99.90
8563;DHT22;16392;52.508;13.468;2022-08-18T04:41:54;22.40;99.90
8563;DHT22;16392;52.508;13.468;2022-08-18T04:44:21;22.50;99.90
8563;DHT22;16392;52.508;13.468;2022-08-18T04:46:49;22.50;99.90
8563;DHT22;16392;52.508;13.468;2022-08-18T04:49:19;22.40;99.90
8563;DHT22;16392;52.508;13.468;2022-08-18T04:51:48;22.50;99.90
8563;DHT22;16392;52.508;13.468;2022-08-18T04:54:42;22.50;99.90
8563;DHT22;16392;52.508;13.468;2022-08-18T04:57:12;22.50;99.90
8563;DHT22;16392;52.508;13.468;2022-08-18T04:59:41;22.60;99.90
8563;DHT22;16392;52.508;13.468;2022-08-18T05:02:08;22.70;99.90
8563;DHT22;16392;52.508;13.468;2022-08-18T05:04:35;22.70;99.90
8563;DHT22;16392;52.508;13.468;2022-08-18T05:07:03;22.80;99.90
8563;DHT22;16392;52.508;13.468;2022-08-18T05:09:30;22.80;99.90
8563;DHT22;16392;52.508;13.468;2022-08-18T05:11:58;22.90;99.90
8563;DHT22;16392;52.508;13.468;2022-08-18T05:14:26;23.00;99.90
8563;DHT22;16392;52.508;13.468;2022-08-18T05:16:56;22.90;99.90
8563;DHT22;16392;52.508;13.468;2022-08-18T05:19:23;22.80;99.90
8563;DHT22;16392;52.508;13.468;2022-08-18T05:21:51;22.80;99.90
8563;DHT22;16392;52.508;13.468;2022-08-18T05:24:18;22.70;99.90
8563;DHT22;16392;52.508;13.468;2022-08-18T05:26:45;22.70;99.90
8563;DHT22;16392;52.508;13.468;2022-08-18T05:29:14;22.70;99.90
8563;DHT22;16392;52.508;13.468;2022-08-18T05:31:41;22.70;99.90
8563;DHT22;16392;52.508;13.468;2022-08-18T05:34:08;22.70;99.90
8563;DHT22;16392;52.508;13.468;2022-08-18T05:36:49;22.80;99.90
8563;DHT22;16392;52.508;13.468;2022-08-18T05:39:25;22.80;99.90
8563;DHT22;16392;52.508;13.468;2022-08-18T05:42:00;22.80;99.90
8563;DHT22;16392;52.508;13.468;2022-08-18T05:44:32;22.90;99.90
8563;DHT22;16392;52.508;13.468;2022-08-18T05:47:03;23.00;99.90
8563;DHT22;16392;52.508;13.468;2022-08-18T05:49:31;23.00;99.90
8563;DHT22;16392;52.508;13.468;2022-08-18T05:52:03;23.00;99.90
8563;DHT22;16392;52.508;13.468;2022-08-18T05:54:35;23.10;99.90
8563;DHT22;16392;52.508;13.468;2022-08-18T05:57:22;23.20;99.90
8563;DHT22;16392;52.508;13.468;2022-08-18T05:59:53;23.20;99.90
8563;DHT22;16392;52.508;13.468;2022-08-18T06:02:30;23.30;99.90
8563;DHT22;16392;52.508;13.468;2022-08-18T06:05:00;23.30;99.90
8563;DHT22;16392;52.508;13.468;2022-08-18T06:07:33;23.40;99.90
8563;DHT22;16392;52.508;13.468;2022-08-18T06:10:02;23.60;99.90
8563;DHT22;16392;52.508;13.468;2022-08-18T06:12:32;23.80;83.20
8563;DHT22;16392;52.508;13.468;2022-08-18T06:15:05;24.10;56.60
8563;DHT22;16392;52.508;13.468;2022-08-18T06:17:53;24.70;10.80
8563;DHT22;16392;52.508;13.468;2022-08-18T06:20:28;25.60;1.00
8563;DHT22;16392;52.508;13.468;2022-08-18T06:23:07;26.30;1.00
8563;DHT22;16392;52.508;13.468;2022-08-18T06:25:48;26.50;1.00
8563;DHT22;16392;52.508;13.468;2022-08-18T06:28:20;27.30;1.00
8563;DHT22;16392;52.508;13.468;2022-08-18T06:30:55;28.20;99.90
8563;DHT22;16392;52.508;13.468;2022-08-18T06:33:36;28.70;1.00
8563;DHT22;16392;52.508;13.468;2022-08-18T06:36:09;29.10;1.00
8563;DHT22;16392;52.508;13.468;2022-08-18T06:38:49;29.40;1.00
8563;DHT22;16392;52.508;13.468;2022-08-18T06:41:19;29.50;1.00
8563;DHT22;16392;52.508;13.468;2022-08-18T06:43:55;29.80;1.00
8563;DHT22;16392;52.508;13.468;2022-08-18T06:46:31;30.20;1.00
8563;DHT22;16392;52.508;13.468;2022-08-18T06:49:04;30.20;1.00
8563;DHT22;16392;52.508;13.468;2022-08-18T06:51:31;30.10;99.90
8563;DHT22;16392;52.508;13.468;2022-08-18T06:54:01;30.20;1.00
8563;DHT22;16392;52.508;13.468;2022-08-18T06:56:34;30.10;99.90
8563;DHT22;16392;52.508;13.468;2022-08-18T06:59:18;29.60;99.90
8563;DHT22;16392;52.508;13.468;2022-08-18T07:01:50;29.20;1.00
8563;DHT22;16392;52.508;13.468;2022-08-18T07:04:40;29.20;1.00
8563;DHT22;16392;52.508;13.468;2022-08-18T07:07:16;29.50;99.90
8563;DHT22;16392;52.508;13.468;2022-08-18T07:09:45;29.40;1.00
8563;DHT22;16392;52.508;13.468;2022-08-18T07:12:20;29.60;99.90
8563;DHT22;16392;52.508;13.468;2022-08-18T07:14:49;29.40;99.90
8563;DHT22;16392;52.508;13.468;2022-08-18T07:17:24;29.30;1.00
8563;DHT22;16392;52.508;13.468;2022-08-18T07:20:00;29.20;99.90
8563;DHT22;16392;52.508;13.468;2022-08-18T07:22:27;29.40;1.00
8563;DHT22;16392;52.508;13.468;2022-08-18T07:24:57;28.90;1.00
8563;DHT22;16392;52.508;13.468;2022-08-18T07:27:43;29.10;99.90
8563;DHT22;16392;52.508;13.468;2022-08-18T07:30:13;28.90;1.00
8563;DHT22;16392;52.508;13.468;2022-08-18T07:32:55;28.80;1.00
8563;DHT22;16392;52.508;13.468;2022-08-18T07:35:27;28.80;99.90
8563;DHT22;16392;52.508;13.468;2022-08-18T07:38:00;29.00;99.90
8563;DHT22;16392;52.508;13.468;2022-08-18T07:40:34;28.90;99.90
8563;DHT22;16392;52.508;13.468;2022-08-18T07:43:05;28.50;99.90
8563;DHT22;16392;52.508;13.468;2022-08-18T07:45:36;28.30;1.00
8563;DHT22;16392;52.508;13.468;2022-08-18T07:48:10;28.30;1.00
8563;DHT22;16392;52.508;13.468;2022-08-18T07:50:44;28.40;99.90
8563;DHT22;16392;52.508;13.468;2022-08-18T07:53:30;28.50;1.00
8563;DHT22;16392;52.508;13.468;2022-08-18T07:56:03;28.70;1.00
8563;DHT22;16392;52.508;13.468;2022-08-18T07:58:34;29.00;1.00
8563;DHT22;16392;52.508;13.468;2022-08-18T08:01:06;28.90;1.00
8563;DHT22;16392;52.508;13.468;2022-08-18T08:03:46;28.80;1.00
8563;DHT22;16392;52.508;13.468;2022-08-18T08:06:18;28.70;99.90
8563;DHT22;16392;52.508;13.468;2022-08-18T08:08:53;28.30;99.90
8563;DHT22;16392;52.508;13.468;2022-08-18T08:11:32;28.00;1.00
8563;DHT22;16392;52.508;13.468;2022-08-18T08:14:09;27.70;99.90
8563;DHT22;16392;52.508;13.468;2022-08-18T08:16:45;27.80;1.00
8563;DHT22;16392;52.508;13.468;2022-08-18T08:19:50;27.60;99.90
8563;DHT22;16392;52.508;13.468;2022-08-18T08:22:25;27.50;99.90
8563;DHT22;16392;52.508;13.468;2022-08-18T08:25:00;27.80;99.90
8563;DHT22;16392;52.508;13.468;2022-08-18T08:27:36;28.20;99.90
8563;DHT22;16392;52.508;13.468;2022-08-18T08:30:09;28.50;99.90
8563;DHT22;16392;52.508;13.468;2022-08-18T08:32:43;28.90;99.90
8563;DHT22;16392;52.508;13.468;2022-08-18T08:35:16;29.40;99.90
8563;DHT22;16392;52.508;13.468;2022-08-18T08:37:48;29.10;21.90
8563;DHT22;16392;52.508;13.468;2022-08-18T08:40:20;29.20;99.90
8563;DHT22;16392;52.508;13.468;2022-08-18T08:42:53;29.10;1.00
8563;DHT22;16392;52.508;13.468;2022-08-18T08:45:25;29.20;99.90
8563;DHT22;16392;52.508;13.468;2022-08-18T08:47:58;29.40;99.90
8563;DHT22;16392;52.508;13.468;2022-08-18T08:50:29;29.40;99.90
8563;DHT22;16392;52.508;13.468;2022-08-18T08:53:00;29.80;1.00
8563;DHT22;16392;52.508;13.468;2022-08-18T08:55:30;30.20;1.00
8563;DHT22;16392;52.508;13.468;2022-08-18T08:58:07;30.70;99.90
8563;DHT22;16392;52.508;13.468;2022-08-18T09:00:40;30.50;99.90
8563;DHT22;16392;52.508;13.468;2022-08-18T09:03:18;30.70;99.90
8563;DHT22;16392;52.508;13.468;2022-08-18T09:05:54;30.90;99.90
8563;DHT22;16392;52.508;13.468;2022-08-18T09:08:38;31.50;1.00
8563;DHT22;16392;52.508;13.468;2022-08-18T09:11:42;31.60;99.90
8563;DHT22;16392;52.508;13.468;2022-08-18T09:17:23;30.70;1.00
8563;DHT22;16392;52.508;13.468;2022-08-18T09:20:05;31.30;1.00
8563;DHT22;16392;52.508;13.468;2022-08-18T09:22:45;31.50;99.90
8563;DHT22;16392;52.508;13.468;2022-08-18T09:25:29;32.10;99.90
8563;DHT22;16392;52.508;13.468;2022-08-18T09:28:07;33.20;99.90
8563;DHT22;16392;52.508;13.468;2022-08-18T09:30:43;33.50;1.00
8563;DHT22;16392;52.508;13.468;2022-08-18T09:33:24;33.90;1.00
8563;DHT22;16392;52.508;13.468;2022-08-18T09:36:08;33.90;1.00
8563;DHT22;16392;52.508;13.468;2022-08-18T09:38:48;32.90;1.00
8563;DHT22;16392;52.508;13.468;2022-08-18T09:41:36;33.70;1.00
8563;DHT22;16392;52.508;13.468;2022-08-18T09:44:11;34.60;1.00
8563;DHT22;16392;52.508;13.468;2022-08-18T09:46:54;35.40;1.00
8563;DHT22;16392;52.508;13.468;2022-08-18T09:49:39;35.30;1.00
8563;DHT22;16392;52.508;13.468;2022-08-18T09:55:34;33.60;1.00
8563;DHT22;16392;52.508;13.468;2022-08-18T09:58:17;33.30;1.00
8563;DHT22;16392;52.508;13.468;2022-08-18T10:00:44;33.30;1.00
8563;DHT22;16392;52.508;13.468;2022-08-18T10:03:18;33.30;1.00
8563;DHT22;16392;52.508;13.468;2022-08-18T10:06:18;33.50;1.00
8563;DHT22;16392;52.508;13.468;2022-08-18T10:09:03;34.40;1.00
8563;DHT22;16392;52.508;13.468;2022-08-18T10:11:44;35.30;1.00
8563;DHT22;16392;52.508;13.468;2022-08-18T10:14:40;35.10;1.00
8563;DHT22;16392;52.508;13.468;2022-08-18T10:17:19;34.00;1.00
8563;DHT22;16392;52.508;13.468;2022-08-18T10:19:55;33.50;1.00
8563;DHT22;16392;52.508;13.468;2022-08-18T10:22:36;33.60;1.00
8563;DHT22;16392;52.508;13.468;2022-08-18T10:25:05;34.40;1.00
8563;DHT22;16392;52.508;13.468;2022-08-18T10:27:46;34.90;1.00
8563;DHT22;16392;52.508;13.468;2022-08-18T10:30:47;35.20;1.00
8563;DHT22;16392;52.508;13.468;2022-08-18T10:34:03;35.30;1.00
8563;DHT22;16392;52.508;13.468;2022-08-18T10:36:41;35.40;1.00
8563;DHT22;16392;52.508;13.468;2022-08-18T10:39:12;36.50;1.00
8563;DHT22;16392;52.508;13.468;2022-08-18T10:41:55;37.10;1.00
8563;DHT22;16392;52.508;13.468;2022-08-18T10:44:24;37.10;1.00
8563;DHT22;16392;52.508;13.468;2022-08-18T10:46:54;37.20;99.90
8563;DHT22;16392;52.508;13.468;2022-08-18T10:49:25;37.40;99.90
8563;DHT22;16392;52.508;13.468;2022-08-18T10:52:29;37.00;99.90
8563;DHT22;16392;52.508;13.468;2022-08-18T10:55:35;37.20;99.90
8563;DHT22;16392;52.508;13.468;2022-08-18T10:58:19;37.90;99.90
8563;DHT22;16392;52.508;13.468;2022-08-18T11:01:02;38.20;99.90
8563;DHT22;16392;52.508;13.468;2022-08-18T11:03:44;38.40;99.90
8563;DHT22;16392;52.508;13.468;2022-08-18T11:06:17;38.70;99.90
8563;DHT22;16392;52.508;13.468;2022-08-18T11:08:47;38.80;99.90
8563;DHT22;16392;52.508;13.468;2022-08-18T11:11:20;37.70;99.90
8563;DHT22;16392;52.508;13.468;2022-08-18T11:13:55;37.00;99.90
8563;DHT22;16392;52.508;13.468;2022-08-18T11:16:35;37.30;99.90
8563;DHT22;16392;52.508;13.468;2022-08-18T11:19:08;37.60;99.90
8563;DHT22;16392;52.508;13.468;2022-08-18T11:21:40;37.80;99.90
8563;DHT22;16392;52.508;13.468;2022-08-18T11:24:10;37.90;99.90
8563;DHT22;16392;52.508;13.468;2022-08-18T11:26:38;36.50;99.90
8563;DHT22;16392;52.508;13.468;2022-08-18T11:29:21;36.30;99.90
8563;DHT22;16392;52.508;13.468;2022-08-18T11:31:49;37.00;99.90
8563;DHT22;16392;52.508;13.468;2022-08-18T11:34:25;37.40;99.90
8563;DHT22;16392;52.508;13.468;2022-08-18T11:36:57;37.60;99.90
8563;DHT22;16392;52.508;13.468;2022-08-18T11:39:25;37.60;99.90
8563;DHT22;16392;52.508;13.468;2022-08-18T11:41:51;38.00;99.90
8563;DHT22;16392;52.508;13.468;2022-08-18T11:44:19;36.90;99.90
8563;DHT22;16392;52.508;13.468;2022-08-18T11:46:53;36.80;99.90
8563;DHT22;16392;52.508;13.468;2022-08-18T11:49:31;36.50;99.90
8563;DHT22;16392;52.508;13.468;2022-08-18T11:52:01;36.70;99.90
8563;DHT22;16392;52.508;13.468;2022-08-18T11:54:35;37.30;99.90
8563;DHT22;16392;52.508;13.468;2022-08-18T11:57:29;37.70;99.90
8563;DHT22;16392;52.508;13.468;2022-08-18T11:59:56;37.60;99.90
8563;DHT22;16392;52.508;13.468;2022-08-18T12:02:24;37.60;99.90
8563;DHT22;16392;52.508;13.468;2022-08-18T12:04:55;37.90;99.90
8563;DHT22;16392;52.508;13.468;2022-08-18T12:07:30;38.30;99.90
8563;DHT22;16392;52.508;13.468;2022-08-18T12:10:18;37.90;99.90
8563;DHT22;16392;52.508;13.468;2022-08-18T12:12:48;36.60;99.90
8563;DHT22;16392;52.508;13.468;2022-08-18T12:15:28;36.60;99.90
8563;DHT22;16392;52.508;13.468;2022-08-18T12:17:54;37.20;99.90
8563;DHT22;16392;52.508;13.468;2022-08-18T12:20:23;36.70;99.90
8563;DHT22;16392;52.508;13.468;2022-08-18T12:22:50;36.40;99.90
8563;DHT22;16392;52.508;13.468;2022-08-18T12:25:20;36.30;99.90
8563;DHT22;16392;52.508;13.468;2022-08-18T12:27:47;36.50;99.90
8563;DHT22;16392;52.508;13.468;2022-08-18T12:30:13;36.50;99.90
8563;DHT22;16392;52.508;13.468;2022-08-18T12:32:40;36.30;99.90
8563;DHT22;16392;52.508;13.468;2022-08-18T12:35:09;37.30;99.90
8563;DHT22;16392;52.508;13.468;2022-08-18T12:37:41;38.00;99.90
8563;DHT22;16392;52.508;13.468;2022-08-18T12:40:10;38.70;99.90
8563;DHT22;16392;52.508;13.468;2022-08-18T12:42:37;38.80;99.90
8563;DHT22;16392;52.508;13.468;2022-08-18T12:45:05;38.70;99.90
8563;DHT22;16392;52.508;13.468;2022-08-18T12:47:40;38.90;99.90
8563;DHT22;16392;52.508;13.468;2022-08-18T12:50:08;39.10;99.90
8563;DHT22;16392;52.508;13.468;2022-08-18T12:52:34;38.80;99.90
8563;DHT22;16392;52.508;13.468;2022-08-18T12:55:03;37.70;99.90
8563;DHT22;16392;52.508;13.468;2022-08-18T12:57:34;37.60;99.90
8563;DHT22;16392;52.508;13.468;2022-08-18T13:00:01;38.10;99.90
8563;DHT22;16392;52.508;13.468;2022-08-18T13:02:28;38.50;99.90
8563;DHT22;16392;52.508;13.468;2022-08-18T13:04:55;38.40;99.90
8563;DHT22;16392;52.508;13.468;2022-08-18T13:07:22;38.20;99.90
8563;DHT22;16392;52.508;13.468;2022-08-18T13:09:49;37.90;99.90
8563;DHT22;16392;52.508;13.468;2022-08-18T13:12:18;36.50;99.90
8563;DHT22;16392;52.508;13.468;2022-08-18T13:14:45;35.90;99.90
8563;DHT22;16392;52.508;13.468;2022-08-18T13:17:12;35.80;99.90
8563;DHT22;16392;52.508;13.468;2022-08-18T13:19:39;36.20;99.90
8563;DHT22;16392;52.508;13.468;2022-08-18T13:22:06;36.40;99.90
8563;DHT22;16392;52.508;13.468;2022-08-18T13:24:33;36.70;99.90
8563;DHT22;16392;52.508;13.468;2022-08-18T13:27:02;37.40;99.90
8563;DHT22;16392;52.508;13.468;2022-08-18T13:29:30;37.70;99.90
8563;DHT22;16392;52.508;13.468;2022-08-18T13:31:57;37.60;99.90
8563;DHT22;16392;52.508;13.468;2022-08-18T13:34:25;37.60;99.90
8563;DHT22;16392;52.508;13.468;2022-08-18T13:36:53;37.40;99.90
8563;DHT22;16392;52.508;13.468;2022-08-18T13:39:22;37.30;99.90
8563;DHT22;16392;52.508;13.468;2022-08-18T13:41:50;37.00;99.90
8563;DHT22;16392;52.508;13.468;2022-08-18T13:44:18;36.70;99.90
8563;DHT22;16392;52.508;13.468;2022-08-18T13:46:49;36.50;99.90
8563;DHT22;16392;52.508;13.468;2022-08-18T13:49:18;36.30;99.90
8563;DHT22;16392;52.508;13.468;2022-08-18T13:51:46;36.50;99.90
8563;DHT22;16392;52.508;13.468;2022-08-18T13:54:19;36.80;99.90
8563;DHT22;16392;52.508;13.468;2022-08-18T13:56:46;36.80;99.90
8563;DHT22;16392;52.508;13.468;2022-08-18T13:59:12;36.50;99.90
8563;DHT22;16392;52.508;13.468;2022-08-18T14:01:39;36.30;99.90
8563;DHT22;16392;52.508;13.468;2022-08-18T14:04:07;36.10;99.90
8563;DHT22;16392;52.508;13.468;2022-08-18T14:06:36;35.30;99.90
8563;DHT22;16392;52.508;13.468;2022-08-18T14:09:04;35.30;99.90
8563;DHT22;16392;52.508;13.468;2022-08-18T14:11:32;35.20;99.90
8563;DHT22;16392;52.508;13.468;2022-08-18T14:14:02;35.30;99.90
8563;DHT22;16392;52.508;13.468;2022-08-18T14:16:29;35.30;99.90
8563;DHT22;16392;52.508;13.468;2022-08-18T14:18:57;35.20;99.90
8563;DHT22;16392;52.508;13.468;2022-08-18T14:21:44;35.00;99.90
8563;DHT22;16392;52.508;13.468;2022-08-18T14:24:29;35.10;99.90
8563;DHT22;16392;52.508;13.468;2022-08-18T14:27:13;35.10;99.90
8563;DHT22;16392;52.508;13.468;2022-08-18T14:29:40;35.20;99.90
8563;DHT22;16392;52.508;13.468;2022-08-18T14:32:09;35.20;99.90
8563;DHT22;16392;52.508;13.468;2022-08-18T14:34:35;35.40;99.90
8563;DHT22;16392;52.508;13.468;2022-08-18T14:37:03;35.50;99.90
8563;DHT22;16392;52.508;13.468;2022-08-18T14:39:30;35.80;99.90
8563;DHT22;16392;52.508;13.468;2022-08-18T14:41:56;36.00;99.90
8563;DHT22;16392;52.508;13.468;2022-08-18T14:44:24;36.20;99.90
8563;DHT22;16392;52.508;13.468;2022-08-18T14:46:50;36.10;99.90
8563;DHT22;16392;52.508;13.468;2022-08-18T14:49:17;35.80;99.90
8563;DHT22;16392;52.508;13.468;2022-08-18T14:51:46;35.70;99.90
8563;DHT22;16392;52.508;13.468;2022-08-18T14:54:14;35.70;99.90
8563;DHT22;16392;52.508;13.468;2022-08-18T14:56:40;35.60;99.90
8563;DHT22;16392;52.508;13.468;2022-08-18T14:59:07;35.20;99.90
8563;DHT22;16392;52.508;13.468;2022-08-18T15:01:34;33.70;1.00
8563;DHT22;16392;52.508;13.468;2022-08-18T15:04:03;33.10;1.00
8563;DHT22;16392;52.508;13.468;2022-08-18T15:06:29;32.90;1.00
8563;DHT22;16392;52.508;13.468;2022-08-18T15:08:56;32.30;1.00
8563;DHT22;16392;52.508;13.468;2022-08-18T15:11:24;31.60;1.00
8563;DHT22;16392;52.508;13.468;2022-08-18T15:13:51;31.30;1.00
8563;DHT22;16392;52.508;13.468;2022-08-18T15:16:19;31.30;1.00
8563;DHT22;16392;52.508;13.468;2022-08-18T15:18:46;31.00;1.00
8563;DHT22;16392;52.508;13.468;2022-08-18T15:21:14;30.70;1.00
8563;DHT22;16392;52.508;13.468;2022-08-18T15:23:59;30.60;1.00
8563;DHT22;16392;52.508;13.468;2022-08-18T15:26:45;30.40;14.70
8563;DHT22;16392;52.508;13.468;2022-08-18T15:29:12;30.40;92.90
8563;DHT22;16392;52.508;13.468;2022-08-18T15:31:38;30.60;99.90
8563;DHT22;16392;52.508;13.468;2022-08-18T15:34:05;30.80;69.40
8563;DHT22;16392;52.508;13.468;2022-08-18T15:36:32;30.40;99.90
8563;DHT22;16392;52.508;13.468;2022-08-18T15:39:00;30.30;99.90
8563;DHT22;16392;52.508;13.468;2022-08-18T15:41:32;30.20;99.90
8563;DHT22;16392;52.508;13.468;2022-08-18T15:44:02;30.00;99.90
8563;DHT22;16392;52.508;13.468;2022-08-18T15:46:31;30.10;99.90
8563;DHT22;16392;52.508;13.468;2022-08-18T15:48:58;30.40;99.90
8563;DHT22;16392;52.508;13.468;2022-08-18T15:51:26;30.50;99.90
8563;DHT22;16392;52.508;13.468;2022-08-18T15:53:55;30.20;99.90
8563;DHT22;16392;52.508;13.468;2022-08-18T15:56:23;30.10;99.90
8563;DHT22;16392;52.508;13.468;2022-08-18T15:58:50;30.10;99.90
8563;DHT22;16392;52.508;13.468;2022-08-18T16:01:20;29.90;99.90
8563;DHT22;16392;52.508;13.468;2022-08-18T16:03:47;29.80;99.90
8563;DHT22;16392;52.508;13.468;2022-08-18T16:06:19;29.50;99.90
8563;DHT22;16392;52.508;13.468;2022-08-18T16:08:46;29.30;99.90